Time;durP1;ratioP1;P1;durP2;ratioP2;P2;SDS_P1;SDS_P2;PMS_P1;PMS_P2;Temp;Humidity;BMP_temperature;BMP_pressure;BME280_temperature;BME280_humidity;BME280_pressure;Samples;Min_cycle;Max_cycle;Signal;HPM_P1;HPM_P2
2022/08/26 00:00:11;;;;;;;27.58;12.55;;;;;;;18.21;100.00;95660.06;1030213;28;20034;-71
2022/08/26 00:00:43;;;;;;;28.52;11.95;;;;;;;18.26;100.00;95673.19;1029963;28;20108;-71
2022/08/26 00:01:14;;;;;;;20.40;12.15;;;;;;;18.26;100.00;95667.88;1032674;28;20041;-71
2022/08/26 00:01:44;;;;;;;28.08;13.00;;;;;;;18.25;100.00;95667.09;1026250;28;20520;-71
2022/08/26 00:02:15;;;;;;;16.63;11.30;;;;;;;18.20;100.00;95653.19;1034110;28;20408;-70
2022/08/26 00:02:45;;;;;;;15.35;11.45;;;;;;;18.25;100.00;95667.09;1034330;28;20104;-70
2022/08/26 00:03:16;;;;;;;20.05;12.23;;;;;;;18.23;100.00;95661.31;1030481;28;20057;-70
2022/08/26 00:03:46;;;;;;;23.85;12.77;;;;;;;18.19;100.00;95654.28;1030181;28;20494;-71
2022/08/26 00:04:17;;;;;;;26.35;13.70;;;;;;;18.24;100.00;95660.25;1030125;28;20399;-71
2022/08/26 00:04:48;;;;;;;23.00;12.25;;;;;;;18.23;100.00;95663.97;1030161;28;20057;-71
2022/08/26 00:05:18;;;;;;;17.63;11.50;;;;;;;18.21;100.00;95654.75;1026473;28;20034;-71
2022/08/26 00:05:49;;;;;;;23.50;12.15;;;;;;;18.25;100.00;95656.47;1030411;28;20060;-70
2022/08/26 00:06:20;;;;;;;18.70;12.50;;;;;;;18.23;100.00;95663.19;1034078;28;20052;-71
2022/08/26 00:06:51;;;;;;;25.70;12.43;;;;;;;18.17;100.00;95648.50;1026337;28;20026;-72
2022/08/26 00:07:21;;;;;;;26.90;12.82;;;;;;;18.24;100.00;95665.56;1022504;28;20023;-70
2022/08/26 00:07:52;;;;;;;23.45;12.52;;;;;;;18.16;100.00;95650.38;1026306;28;20779;-70
2022/08/26 00:08:23;;;;;;;38.22;14.50;;;;;;;18.19;100.00;95656.94;1029947;28;20018;-70
2022/08/26 00:08:53;;;;;;;39.95;13.20;;;;;;;18.17;100.00;95659.91;1030315;28;20018;-71
2022/08/26 00:09:24;;;;;;;32.67;13.82;;;;;;;18.20;100.00;95658.50;1033688;28;20018;-71
2022/08/26 00:09:54;;;;;;;33.05;13.75;;;;;;;18.24;100.00;95654.13;1038199;28;20022;-72
2022/08/26 00:10:25;;;;;;;34.05;13.60;;;;;;;18.15;100.00;95651.47;1034234;28;20030;-71
2022/08/26 00:10:55;;;;;;;33.08;12.73;;;;;;;18.19;100.00;95663.03;1026367;28;20074;-68
2022/08/26 00:11:26;;;;;;;25.00;12.50;;;;;;;18.13;100.00;95654.44;1030295;28;20030;-71
2022/08/26 00:11:56;;;;;;;23.70;12.68;;;;;;;18.16;100.00;95654.91;1030092;28;20739;-71
2022/08/26 00:12:27;;;;;;;23.45;11.63;;;;;;;18.17;100.00;95654.59;1026008;28;20093;-70
2022/08/26 00:12:57;;;;;;;23.17;11.95;;;;;;;18.16;100.00;95663.66;1022310;29;20023;-70
2022/08/26 00:13:28;;;;;;;21.95;12.10;;;;;;;18.14;100.00;95661.31;1022183;28;20512;-70
2022/08/26 00:13:58;;;;;;;25.42;11.98;;;;;;;18.13;100.00;95657.09;1026329;28;20077;-71
2022/08/26 00:14:29;;;;;;;29.40;12.77;;;;;;;18.13;100.00;95654.44;1026183;28;20022;-70
2022/08/26 00:15:00;;;;;;;29.50;12.73;;;;;;;18.13;100.00;95654.44;1028328;28;20532;-70
2022/08/26 00:15:30;;;;;;;21.77;12.43;;;;;;;18.11;100.00;95651.31;1026295;28;20026;-70
2022/08/26 00:16:02;;;;;;;17.10;11.25;;;;;;;18.03;100.00;95643.34;1026215;28;20029;-72
2022/08/26 00:16:33;;;;;;;19.92;11.88;;;;;;;18.08;100.00;95654.59;1019131;28;20055;-70
2022/08/26 00:17:04;;;;;;;20.33;12.27;;;;;;;18.07;100.00;95658.34;1026470;28;20019;-70
2022/08/26 00:17:34;;;;;;;27.02;12.32;;;;;;;18.07;100.00;95663.66;1026253;28;20038;-71
2022/08/26 00:18:05;;;;;;;28.75;11.90;;;;;;;18.05;100.00;95657.88;1026434;28;20559;-70
2022/08/26 00:18:36;;;;;;;25.90;12.50;;;;;;;18.04;100.00;95661.63;1025620;28;20034;-71
2022/08/26 00:19:06;;;;;;;20.15;11.80;;;;;;;18.03;100.00;95657.41;1033701;28;20041;-71
2022/08/26 00:19:37;;;;;;;16.45;10.85;;;;;;;18.02;100.00;95661.16;1030194;28;20014;-71
2022/08/26 00:20:09;;;;;;;19.45;12.40;;;;;;;18.01;100.00;95662.25;1032493;28;20080;-71
2022/08/26 00:20:39;;;;;;;22.85;12.30;;;;;;;18.01;100.00;95662.25;1030196;28;20788;-69
2022/08/26 00:21:10;;;;;;;16.95;11.88;;;;;;;18.00;100.00;95660.69;1030196;28;20046;-70
2022/08/26 00:21:40;;;;;;;21.50;12.35;;;;;;;18.00;100.00;95663.34;1030642;28;20050;-70
2022/08/26 00:22:13;;;;;;;22.17;12.88;;;;;;;17.97;100.00;95666.59;1034179;28;20014;-71
2022/08/26 00:22:44;;;;;;;20.13;12.50;;;;;;;17.98;100.00;95665.53;1034447;28;20033;-69
2022/08/26 00:23:14;;;;;;;15.25;11.45;;;;;;;17.96;100.00;95667.72;1034151;28;20460;-70
2022/08/26 00:23:45;;;;;;;17.42;11.85;;;;;;;17.97;100.00;95660.53;1034006;28;20104;-70
2022/08/26 00:24:18;;;;;;;19.90;12.50;;;;;;;17.97;100.00;95661.28;1035223;28;20014;-71
2022/08/26 00:24:49;;;;;;;20.38;11.13;;;;;;;17.98;100.00;95667.41;1026535;28;20019;-71
2022/08/26 00:25:22;;;;;;;22.00;12.38;;;;;;;17.97;100.00;95660.53;1022734;28;20047;-70
2022/08/26 00:25:53;;;;;;;15.32;11.10;;;;;;;17.97;100.00;95665.81;1030749;28;20098;-70
2022/08/26 00:26:23;;;;;;;20.85;12.02;;;;;;;17.94;100.00;95661.94;1033878;28;20058;-68
2022/08/26 00:26:54;;;;;;;22.75;12.07;;;;;;;17.95;100.00;95671.47;1036257;28;20149;-71
2022/08/26 00:27:25;;;;;;;24.13;13.38;;;;;;;17.92;100.00;95664.13;1034353;28;20014;-71
2022/08/26 00:27:56;;;;;;;34.88;14.00;;;;;;;17.96;100.00;95665.06;1034400;28;20028;-71
2022/08/26 00:28:26;;;;;;;24.42;12.07;;;;;;;17.96;100.00;95665.06;1030743;28;20380;-71
2022/08/26 00:28:56;;;;;;;25.38;11.75;;;;;;;17.95;100.00;95671.47;1038290;28;20049;-71
2022/08/26 00:29:27;;;;;;;28.65;13.15;;;;;;;17.96;100.00;95670.38;1041859;28;20025;-70
2022/08/26 00:30:03;;;;;;;19.08;12.77;;;;;;;17.96;100.00;95666.94;1038465;28;20032;-71
2022/08/26 00:30:34;;;;;;;30.55;12.70;;;;;;;17.95;100.00;95673.34;1038182;28;20095;-71
2022/08/26 00:31:04;;;;;;;41.00;13.90;;;;;;;17.95;100.00;95668.03;1037758;28;20471;-69
2022/08/26 00:31:35;;;;;;;30.42;12.18;;;;;;;17.95;100.00;95674.13;1034156;28;20045;-70
2022/08/26 00:32:05;;;;;;;35.03;13.27;;;;;;;17.92;100.00;95664.13;1030097;28;20038;-70
2022/08/26 00:32:36;;;;;;;40.90;13.32;;;;;;;17.94;100.00;95667.25;1022154;29;20078;-71
2022/08/26 00:33:07;;;;;;;22.52;12.52;;;;;;;17.92;100.00;95674.75;1018357;29;20606;-70
2022/08/26 00:33:38;;;;;;;20.48;12.10;;;;;;;17.84;100.00;95657.72;1025480;28;20054;-71
2022/08/26 00:34:09;;;;;;;19.65;11.68;;;;;;;17.90;100.00;95668.94;1034424;28;20026;-71
2022/08/26 00:34:40;;;;;;;18.67;11.40;;;;;;;17.91;100.00;95667.88;1038455;28;20133;-71
2022/08/26 00:35:11;;;;;;;23.67;11.73;;;;;;;17.91;100.00;95673.19;1029708;28;20030;-71
2022/08/26 00:35:42;;;;;;;23.42;12.77;;;;;;;17.80;100.00;95662.06;1026195;28;20042;-71
2022/08/26 00:36:13;;;;;;;28.55;12.13;;;;;;;17.90;100.00;95660.97;1025781;28;20066;-70
2022/08/26 00:36:44;;;;;;;39.30;14.02;;;;;;;17.87;100.00;95673.03;1026763;28;20046;-71
2022/08/26 00:37:14;;;;;;;29.58;13.25;;;;;;;17.87;100.00;95666.91;1025667;28;20145;-71
2022/08/26 00:37:50;;;;;;;30.27;12.60;;;;;;;17.85;100.00;95661.91;1034677;28;20033;-70
2022/08/26 00:38:21;;;;;;;38.17;12.90;;;;;;;17.87;100.00;95665.06;1038312;28;20113;-70
2022/08/26 00:38:51;;;;;;;26.38;13.27;;;;;;;17.87;100.00;95666.91;1038058;28;20510;-70
2022/08/26 00:39:22;;;;;;;25.85;12.20;;;;;;;17.84;100.00;95668.34;1033412;28;20030;-71
2022/08/26 00:39:53;;;;;;;30.42;12.70;;;;;;;17.86;100.00;95675.97;1035264;28;20593;-70
2022/08/26 00:40:32;;;;;;;17.15;11.98;;;;;;;17.77;100.00;95656.59;1046578;28;20398;-70
2022/08/26 00:41:02;;;;;;;22.45;12.30;;;;;;;17.79;100.00;95665.03;1039518;28;20025;-70
2022/08/26 00:41:34;;;;;;;20.80;12.50;;;;;;;17.82;100.00;95664.41;1030054;28;20121;-70
2022/08/26 00:42:04;;;;;;;23.33;12.23;;;;;;;17.80;100.00;95674.56;1026092;28;20031;-71
2022/08/26 00:42:35;;;;;;;22.33;11.77;;;;;;;17.64;100.00;95648.44;1034081;28;20423;-70
2022/08/26 00:43:05;;;;;;;24.63;12.20;;;;;;;17.76;100.00;95665.63;1036523;28;20064;-70
2022/08/26 00:43:36;;;;;;;22.08;12.13;;;;;;;17.78;100.00;95674.09;1029937;28;20761;-70
2022/08/26 00:44:09;;;;;;;17.33;11.30;;;;;;;17.79;100.00;95671.13;1031816;28;20395;-71
2022/08/26 00:44:39;;;;;;;19.05;11.52;;;;;;;17.78;100.00;95674.09;1030305;28;20114;-71
2022/08/26 00:45:10;;;;;;;16.95;11.27;;;;;;;17.73;100.00;95658.28;1032020;28;20146;-71
2022/08/26 00:45:44;;;;;;;28.60;12.63;;;;;;;17.77;100.00;95672.50;1029953;28;20419;-71
2022/08/26 00:46:18;;;;;;;21.45;11.50;;;;;;;17.77;100.00;95665.34;1026457;28;20460;-70
2022/08/26 00:46:51;;;;;;;19.52;12.60;;;;;;;17.75;100.00;95664.84;1018233;29;20559;-71
2022/08/26 00:47:23;;;;;;;18.58;12.25;;;;;;;17.72;100.00;95670.78;1019874;29;20840;-71
2022/08/26 00:48:00;;;;;;;22.85;12.45;;;;;;;17.71;100.00;95665.78;1029720;28;20026;-70
2022/08/26 00:48:31;;;;;;;18.95;12.43;;;;;;;17.67;100.00;95669.06;1030250;28;20498;-71
2022/08/26 00:49:07;;;;;;;18.35;12.30;;;;;;;17.71;100.00;95668.44;1027677;28;20022;-69
2022/08/26 00:49:42;;;;;;;27.77;12.63;;;;;;;17.68;100.00;95670.59;1025948;28;20117;-71
2022/08/26 00:50:15;;;;;;;17.65;11.23;;;;;;;17.68;100.00;95667.97;1025355;28;20027;-71
2022/08/26 00:50:57;;;;;;;16.52;11.80;;;;;;;17.65;100.00;95679.19;1026243;28;20029;-71
2022/08/26 00:51:27;;;;;;;20.17;12.90;;;;;;;17.64;100.00;95671.53;1018264;29;20023;-71
2022/08/26 00:51:58;;;;;;;20.13;12.25;;;;;;;17.68;100.00;95677.78;1023997;28;20302;-71
2022/08/26 00:52:28;;;;;;;21.67;12.95;;;;;;;17.65;100.00;95676.53;1027469;28;20131;-72
2022/08/26 00:52:59;;;;;;;16.23;12.52;;;;;;;17.62;100.00;95665.75;1028858;28;20029;-71
2022/08/26 00:53:31;;;;;;;21.60;12.18;;;;;;;17.65;100.00;95676.53;1026227;28;20388;-71
2022/08/26 00:54:04;;;;;;;26.63;12.90;;;;;;;17.61;100.00;95664.19;1026044;28;20619;-71
2022/08/26 00:54:39;;;;;;;20.20;12.55;;;;;;;17.60;100.00;95667.94;1024222;28;20031;-70
2022/08/26 00:55:18;;;;;;;21.90;12.57;;;;;;;17.65;100.00;95676.53;1027419;28;20589;-71
2022/08/26 00:55:53;;;;;;;20.10;12.65;;;;;;;17.63;100.00;95675.28;1028719;28;20035;-70
2022/08/26 00:56:28;;;;;;;24.42;12.65;;;;;;;17.64;100.00;95674.97;1033250;28;20538;-71
2022/08/26 00:57:04;;;;;;;20.70;12.73;;;;;;;17.63;100.00;95665.44;1034072;28;20030;-71
2022/08/26 00:57:38;;;;;;;20.80;12.20;;;;;;;17.65;100.00;95673.09;1038402;28;20120;-71
2022/08/26 00:58:08;;;;;;;20.33;12.27;;;;;;;17.64;100.00;95674.97;1031168;28;20030;-72
2022/08/26 00:58:41;;;;;;;23.60;12.77;;;;;;;17.66;100.00;95675.44;1027573;28;20034;-70
2022/08/26 00:59:12;;;;;;;23.73;13.07;;;;;;;17.62;100.00;95666.53;1027219;28;20698;-71
2022/08/26 00:59:51;;;;;;;22.30;12.18;;;;;;;17.63;100.00;95672.63;1024055;28;20085;-70
2022/08/26 01:00:24;;;;;;;29.60;13.43;;;;;;;17.63;100.00;95676.03;1025231;28;20640;-71
2022/08/26 01:00:54;;;;;;;40.13;14.35;;;;;;;17.60;100.00;95671.34;1022276;29;20267;-71
2022/08/26 01:01:27;;;;;;;28.60;13.60;;;;;;;17.60;100.00;95673.22;1023524;28;20066;-71
2022/08/26 01:01:57;;;;;;;42.15;14.55;;;;;;;17.54;100.00;95664.66;1026184;28;20026;-71
2022/08/26 01:02:28;;;;;;;31.23;13.27;;;;;;;17.58;100.00;95670.91;1025967;28;20069;-71
2022/08/26 01:03:00;;;;;;;30.42;14.00;;;;;;;17.58;100.00;95673.56;1027304;28;20038;-71
2022/08/26 01:03:31;;;;;;;25.02;13.00;;;;;;;17.58;100.00;95673.56;1030162;28;20081;-70
2022/08/26 01:04:01;;;;;;;21.13;12.75;;;;;;;17.55;100.00;95671.50;1022446;28;20560;-71
2022/08/26 01:04:35;;;;;;;27.23;13.43;;;;;;;17.54;100.00;95672.63;1027308;28;20121;-71
2022/08/26 01:05:06;;;;;;;23.17;12.82;;;;;;;17.53;100.00;95664.94;1030647;28;20030;-71
2022/08/26 01:05:38;;;;;;;20.85;12.48;;;;;;;17.52;100.00;95674.00;1030801;28;20026;-70
2022/08/26 01:06:09;;;;;;;23.00;12.63;;;;;;;17.51;100.00;95665.25;1022200;29;20444;-71
2022/08/26 01:06:40;;;;;;;27.85;13.68;;;;;;;17.51;100.00;95675.88;1029813;28;20129;-70
2022/08/26 01:07:10;;;;;;;26.17;13.00;;;;;;;17.51;100.00;95670.56;1026141;28;20023;-71
2022/08/26 01:07:41;;;;;;;18.30;12.18;;;;;;;17.52;100.00;95674.78;1026476;28;20640;-71
2022/08/26 01:08:12;;;;;;;20.58;12.63;;;;;;;17.50;100.00;95669.00;1026051;28;20027;-72
2022/08/26 01:08:42;;;;;;;19.63;12.82;;;;;;;17.50;100.00;95673.50;1030232;28;20045;-71
2022/08/26 01:09:12;;;;;;;24.88;13.00;;;;;;;17.45;100.00;95666.50;1029441;28;20073;-70
2022/08/26 01:09:46;;;;;;;26.48;13.10;;;;;;;17.48;100.00;95662.44;1021865;28;20818;-71
2022/08/26 01:10:19;;;;;;;27.50;13.38;;;;;;;17.49;100.00;95667.44;1022133;29;20054;-71
2022/08/26 01:10:49;;;;;;;31.25;13.07;;;;;;;17.49;100.00;95666.66;1025944;28;20411;-71
2022/08/26 01:11:20;;;;;;;19.27;12.90;;;;;;;17.47;100.00;95661.66;1026795;28;20070;-71
2022/08/26 01:11:52;;;;;;;27.88;13.13;;;;;;;17.44;100.00;95664.94;1027405;28;20027;-71
2022/08/26 01:12:23;;;;;;;22.13;13.48;;;;;;;17.41;100.00;95654.94;1026385;28;20436;-70
2022/08/26 01:12:59;;;;;;;27.10;13.50;;;;;;;17.38;100.00;95658.97;1026301;28;20400;-70
2022/08/26 01:13:29;;;;;;;32.30;14.00;;;;;;;17.39;100.00;95654.44;1025891;28;20083;-71
2022/08/26 01:14:01;;;;;;;28.70;13.15;;;;;;;17.39;100.00;95652.56;1022106;29;20045;-70
2022/08/26 01:14:33;;;;;;;18.48;12.77;;;;;;;17.39;100.00;95657.09;1022075;29;20070;-70
2022/08/26 01:15:04;;;;;;;23.35;13.23;;;;;;;17.43;100.00;95660.69;1020904;28;20031;-70
2022/08/26 01:15:40;;;;;;;19.60;13.00;;;;;;;17.43;100.00;95671.31;1022256;29;20045;-71
2022/08/26 01:16:12;;;;;;;26.15;13.13;;;;;;;17.43;100.00;95663.34;1023329;28;20027;-70
2022/08/26 01:16:42;;;;;;;26.17;13.40;;;;;;;17.42;100.00;95659.91;1024287;28;20114;-71
2022/08/26 01:17:14;;;;;;;23.20;13.77;;;;;;;17.38;100.00;95655.56;1028076;28;20027;-71
2022/08/26 01:17:44;;;;;;;23.85;13.48;;;;;;;17.40;100.00;95659.47;1026105;28;20531;-70
2022/08/26 01:18:15;;;;;;;22.55;13.05;;;;;;;17.43;100.00;95666.00;1036594;28;20025;-71
2022/08/26 01:18:46;;;;;;;30.38;13.70;;;;;;;17.40;100.00;95661.31;1030166;28;20054;-71
2022/08/26 01:19:22;;;;;;;24.08;13.25;;;;;;;17.40;100.00;95663.97;1028846;28;20022;-70
2022/08/26 01:20:00;;;;;;;19.00;12.48;;;;;;;17.41;100.00;95668.97;1041495;28;20924;-70
2022/08/26 01:20:54;;;;;;;19.42;12.20;;;;;;;17.36;100.00;95658.50;1034027;28;20113;-70
2022/08/26 01:21:38;;;;;;;21.98;13.07;;;;;;;17.38;100.00;95666.16;1029727;28;20018;-70
2022/08/26 01:22:14;;;;;;;16.98;11.98;;;;;;;17.38;100.00;95661.63;1026879;28;20026;-70
2022/08/26 01:22:52;;;;;;;26.35;14.15;;;;;;;17.35;100.00;95656.94;1023180;28;20074;-71
2022/08/26 01:23:23;;;;;;;26.25;13.75;;;;;;;17.37;100.00;95667.22;1029787;28;20032;-70
2022/08/26 01:23:53;;;;;;;26.38;13.60;;;;;;;17.33;100.00;95658.31;1033830;28;20515;-70
2022/08/26 01:24:26;;;;;;;21.92;14.20;;;;;;;17.34;100.00;95663.34;1030399;28;20035;-71
2022/08/26 01:24:57;;;;;;;19.35;14.10;;;;;;;17.32;100.00;95657.56;1026718;28;20579;-70
2022/08/26 01:25:30;;;;;;;23.58;13.43;;;;;;;17.28;100.00;95655.84;1022695;29;20031;-71
2022/08/26 01:26:07;;;;;;;19.60;13.23;;;;;;;17.29;100.00;95663.47;1022882;29;20046;-70
2022/08/26 01:26:41;;;;;;;19.33;12.90;;;;;;;17.29;100.00;95663.47;1026745;28;20030;-71
2022/08/26 01:27:13;;;;;;;20.55;14.20;;;;;;;17.29;100.00;95660.81;1034719;28;20025;-70
2022/08/26 01:27:43;;;;;;;22.67;14.07;;;;;;;17.26;100.00;95663.31;1030685;28;20121;-70
2022/08/26 01:28:17;;;;;;;22.98;13.18;;;;;;;17.21;100.00;95653.63;1026775;28;20392;-71
2022/08/26 01:28:49;;;;;;;24.05;13.75;;;;;;;17.27;100.00;95665.66;1034619;28;20087;-70
2022/08/26 01:29:19;;;;;;;25.92;14.27;;;;;;;17.27;100.00;95665.66;1033800;28;20560;-71
2022/08/26 01:29:50;;;;;;;29.13;14.50;;;;;;;17.26;100.00;95658.00;1030480;28;20124;-71
2022/08/26 01:30:20;;;;;;;19.63;13.07;;;;;;;17.26;100.00;95660.66;1025322;28;20027;-70
2022/08/26 01:30:52;;;;;;;20.75;13.60;;;;;;;17.26;100.00;95668.59;1023007;28;20038;-70
2022/08/26 01:31:24;;;;;;;26.23;14.05;;;;;;;17.26;100.00;95660.66;1022595;29;20400;-72
2022/08/26 01:31:55;;;;;;;23.92;13.95;;;;;;;17.21;100.00;95656.28;1023207;28;20836;-71
2022/08/26 01:32:31;;;;;;;25.13;13.30;;;;;;;17.25;100.00;95659.09;1026743;28;20082;-71
2022/08/26 01:33:03;;;;;;;21.40;13.15;;;;;;;17.22;100.00;95655.19;1030943;28;20041;-70
2022/08/26 01:33:47;;;;;;;19.98;13.15;;;;;;;17.22;100.00;95651.75;1026437;28;20377;-71
2022/08/26 01:34:20;;;;;;;19.00;12.15;;;;;;;17.18;100.00;95657.66;1022767;29;20074;-70
2022/08/26 01:34:51;;;;;;;25.90;13.73;;;;;;;17.16;100.00;95654.53;1030881;28;20028;-70
2022/08/26 01:35:22;;;;;;;21.67;13.55;;;;;;;17.22;100.00;95657.06;1034716;28;20768;-71
2022/08/26 01:35:52;;;;;;;21.98;13.73;;;;;;;17.17;100.00;95656.09;1026737;28;20086;-72
2022/08/26 01:36:23;;;;;;;25.85;13.57;;;;;;;17.21;100.00;95656.28;1030912;28;20027;-71
2022/08/26 01:37:14;;;;;;;19.35;13.13;;;;;;;17.22;100.00;95663.13;1027300;28;20030;-71
2022/08/26 01:37:44;;;;;;;19.85;13.15;;;;;;;17.22;100.00;95665.78;1030574;28;20407;-71
2022/08/26 01:38:15;;;;;;;20.75;13.68;;;;;;;17.20;100.00;95650.19;1025510;28;20027;-70
2022/08/26 01:38:45;;;;;;;17.35;13.10;;;;;;;17.18;100.00;95654.22;1022694;29;20026;-71
2022/08/26 01:39:16;;;;;;;19.75;12.93;;;;;;;17.22;100.00;95659.69;1019989;29;20027;-70
2022/08/26 01:39:48;;;;;;;18.38;12.88;;;;;;;17.20;100.00;95660.00;1022669;29;20030;-70
2022/08/26 01:40:21;;;;;;;20.50;13.55;;;;;;;17.21;100.00;95661.56;1030214;28;20178;-71
2022/08/26 01:40:51;;;;;;;17.23;12.82;;;;;;;17.16;100.00;95651.09;1034691;28;20022;-70
2022/08/26 01:41:22;;;;;;;22.33;13.43;;;;;;;17.20;100.00;95655.50;1030747;28;20026;-72
2022/08/26 01:41:53;;;;;;;23.52;13.73;;;;;;;17.22;100.00;95662.34;1026540;28;20026;-71
2022/08/26 01:42:24;;;;;;;26.58;14.38;;;;;;;17.20;100.00;95660.81;1030786;28;20077;-71
2022/08/26 01:42:54;;;;;;;23.30;13.68;;;;;;;17.15;100.00;95655.63;1030690;28;20747;-71
2022/08/26 01:43:25;;;;;;;20.33;13.27;;;;;;;17.14;100.00;95650.63;1030649;28;20062;-70
2022/08/26 01:43:56;;;;;;;20.33;13.68;;;;;;;17.16;100.00;95651.88;1030695;28;20030;-71
2022/08/26 01:44:29;;;;;;;24.08;13.82;;;;;;;17.15;100.00;95660.16;1022686;29;20129;-71
2022/08/26 01:45:17;;;;;;;20.05;13.45;;;;;;;17.20;100.00;95662.66;1026825;28;20022;-71
2022/08/26 01:45:48;;;;;;;19.88;12.90;;;;;;;17.14;100.00;95656.72;1022752;29;20034;-71
2022/08/26 01:46:19;;;;;;;24.80;15.18;;;;;;;17.18;100.00;95662.97;1026324;28;20102;-71
2022/08/26 01:46:49;;;;;;;24.23;13.27;;;;;;;17.14;100.00;95662.03;1026857;28;20105;-70
2022/08/26 01:47:20;;;;;;;22.25;13.40;;;;;;;17.14;100.00;95661.25;1026627;28;20655;-72
2022/08/26 01:47:52;;;;;;;26.17;13.80;;;;;;;17.11;100.00;95646.72;1030678;28;20038;-71
2022/08/26 01:48:27;;;;;;;20.20;13.88;;;;;;;17.15;100.00;95666.22;1030484;28;20601;-71
2022/08/26 01:48:59;;;;;;;21.63;14.05;;;;;;;17.14;100.00;95662.03;1018801;29;20474;-70
2022/08/26 01:49:29;;;;;;;45.53;15.00;;;;;;;17.09;100.00;95656.84;1026122;28;20043;-70
2022/08/26 01:50:02;;;;;;;32.55;15.18;;;;;;;16.97;100.00;95635.44;1026784;28;20159;-71
2022/08/26 01:50:33;;;;;;;25.40;13.95;;;;;;;17.09;100.00;95658.72;1026537;28;20038;-71
2022/08/26 01:51:04;;;;;;;21.23;13.98;;;;;;;17.09;100.00;95661.38;1023801;28;20032;-70
2022/08/26 01:51:37;;;;;;;20.30;13.82;;;;;;;17.07;100.00;95659.03;1030666;28;20062;-71
2022/08/26 01:52:08;;;;;;;24.30;13.65;;;;;;;17.02;100.00;95653.84;1022750;29;20015;-70
2022/08/26 01:52:40;;;;;;;23.73;13.25;;;;;;;17.05;100.00;95663.84;1022610;28;20039;-71
2022/08/26 01:53:11;;;;;;;32.22;15.35;;;;;;;17.06;100.00;95661.97;1022783;29;20026;-71
2022/08/26 01:53:42;;;;;;;27.65;13.43;;;;;;;17.06;100.00;95662.75;1018828;29;20027;-71
2022/08/26 01:54:15;;;;;;;31.48;13.50;;;;;;;17.02;100.00;95653.84;1018908;29;20031;-71
2022/08/26 01:54:46;;;;;;;18.77;14.23;;;;;;;17.04;100.00;95657.00;1022057;29;20027;-70
2022/08/26 01:55:17;;;;;;;32.63;13.80;;;;;;;16.99;100.00;95651.81;1026764;28;20504;-72
2022/08/26 01:55:50;;;;;;;23.77;13.73;;;;;;;17.02;100.00;95661.03;1030825;28;20447;-70
2022/08/26 01:56:21;;;;;;;34.55;14.75;;;;;;;16.85;100.00;95638.66;1027048;28;20578;-72
2022/08/26 01:56:51;;;;;;;35.75;14.27;;;;;;;17.00;100.00;95655.22;1018657;29;20099;-70
2022/08/26 01:57:22;;;;;;;25.70;13.65;;;;;;;16.98;100.00;95654.78;1034867;28;20141;-71
2022/08/26 01:57:53;;;;;;;25.80;13.65;;;;;;;16.96;100.00;95655.06;1034713;28;20496;-72
2022/08/26 01:58:28;;;;;;;28.50;15.25;;;;;;;16.94;100.00;95657.25;1030664;28;20116;-70
2022/08/26 01:58:59;;;;;;;20.50;13.10;;;;;;;16.95;100.00;95659.59;1030678;28;20026;-73
2022/08/26 01:59:30;;;;;;;29.75;12.95;;;;;;;16.95;100.00;95659.59;1026124;28;20408;-71
2022/08/26 02:00:01;;;;;;;23.38;15.02;;;;;;;16.91;100.00;95658.63;1024339;28;20027;-70
2022/08/26 02:00:32;;;;;;;25.17;14.25;;;;;;;16.91;100.00;95653.34;1026901;28;20045;-71
2022/08/26 02:01:02;;;;;;;32.15;14.75;;;;;;;16.91;100.00;95657.88;1030219;28;20064;-70
2022/08/26 02:01:33;;;;;;;22.35;13.52;;;;;;;16.86;100.00;95656.09;1030604;28;20038;-71
2022/08/26 02:02:04;;;;;;;18.77;13.07;;;;;;;16.83;100.00;95645.34;1027226;28;20090;-71
2022/08/26 02:02:34;;;;;;;20.65;14.00;;;;;;;16.88;100.00;95661.13;1032982;28;20030;-71
2022/08/26 02:03:16;;;;;;;22.10;13.25;;;;;;;16.89;100.00;95660.03;1032806;28;20049;-71
2022/08/26 02:04:14;;;;;;;24.30;14.80;;;;;;;16.87;100.00;95656.91;1030839;28;20038;-71
2022/08/26 02:04:49;;;;;;;21.38;13.68;;;;;;;16.87;100.00;95657.69;1033524;28;20057;-71
2022/08/26 02:05:23;;;;;;;24.10;14.55;;;;;;;16.88;100.00;95658.47;1026822;28;20073;-71
2022/08/26 02:05:58;;;;;;;24.17;13.93;;;;;;;16.81;100.00;95658.13;1027414;28;20042;-71
2022/08/26 02:06:28;;;;;;;26.80;14.68;;;;;;;16.82;100.00;95664.97;1024439;28;20142;-70
2022/08/26 02:07:02;;;;;;;22.35;14.75;;;;;;;16.85;100.00;95667.03;1023733;28;20578;-71
2022/08/26 02:07:32;;;;;;;22.40;14.40;;;;;;;16.82;100.00;95665.75;1022576;28;20462;-70
2022/08/26 02:08:03;;;;;;;21.80;14.45;;;;;;;16.80;100.00;95662.66;1030501;28;20022;-70
2022/08/26 02:08:41;;;;;;;22.70;13.65;;;;;;;16.82;100.00;95664.97;1030704;28;20034;-70
2022/08/26 02:09:12;;;;;;;23.05;14.82;;;;;;;16.82;100.00;95663.09;1021974;29;20035;-71
2022/08/26 02:09:42;;;;;;;27.50;14.43;;;;;;;16.80;100.00;95662.66;1024707;28;20027;-70
2022/08/26 02:10:13;;;;;;;21.52;13.55;;;;;;;16.82;100.00;95662.31;1026554;28;20027;-71
2022/08/26 02:10:43;;;;;;;24.88;14.20;;;;;;;16.82;100.00;95665.75;1022490;29;20023;-71
2022/08/26 02:11:14;;;;;;;23.25;14.50;;;;;;;16.82;100.00;95662.31;1022341;29;20416;-71
2022/08/26 02:11:45;;;;;;;22.20;14.02;;;;;;;16.77;100.00;95657.13;1022584;28;20027;-71
2022/08/26 02:12:16;;;;;;;21.65;13.40;;;;;;;16.81;100.00;95660.78;1030034;28;20442;-70
2022/08/26 02:12:46;;;;;;;22.17;13.98;;;;;;;16.82;100.00;95665.75;1030476;28;20546;-71
2022/08/26 02:13:17;;;;;;;22.15;13.52;;;;;;;16.77;100.00;95660.59;1022524;28;20019;-72
2022/08/26 02:13:53;;;;;;;19.27;13.30;;;;;;;16.76;100.00;95653.72;1026584;28;20031;-71
2022/08/26 02:14:27;;;;;;;19.65;12.85;;;;;;;16.83;100.00;95658.59;1030658;28;20018;-71
2022/08/26 02:15:00;;;;;;;23.02;13.70;;;;;;;16.83;100.00;95661.22;1034670;28;20022;-71
2022/08/26 02:15:33;;;;;;;20.85;13.95;;;;;;;16.82;100.00;95662.31;1034550;28;20350;-69
2022/08/26 02:16:03;;;;;;;23.20;14.32;;;;;;;16.77;100.00;95646.53;1027880;28;20417;-70
2022/08/26 02:16:37;;;;;;;18.90;14.40;;;;;;;16.82;100.00;95663.09;1026430;28;20031;-70
2022/08/26 02:17:08;;;;;;;22.42;14.48;;;;;;;16.82;100.00;95662.31;1026619;28;20019;-71
2022/08/26 02:17:41;;;;;;;24.13;14.85;;;;;;;16.78;100.00;95659.50;1026453;28;20515;-71
2022/08/26 02:18:12;;;;;;;26.13;14.48;;;;;;;16.83;100.00;95666.53;1022507;29;20019;-70
2022/08/26 02:18:42;;;;;;;22.20;13.70;;;;;;;16.85;100.00;95669.69;1022732;29;20035;-71
2022/08/26 02:19:22;;;;;;;20.15;13.70;;;;;;;16.87;100.00;95664.88;1022512;28;20031;-70
2022/08/26 02:19:52;;;;;;;20.98;14.07;;;;;;;16.85;100.00;95656.41;1025292;28;20144;-71
2022/08/26 02:20:23;;;;;;;21.60;14.88;;;;;;;16.87;100.00;95663.00;1027991;28;20064;-71
2022/08/26 02:20:53;;;;;;;25.20;14.85;;;;;;;16.89;100.00;95665.31;1030716;28;20293;-71
2022/08/26 02:21:24;;;;;;;22.60;14.95;;;;;;;16.86;100.00;95664.06;1026711;28;20034;-71
2022/08/26 02:21:54;;;;;;;26.42;14.65;;;;;;;16.88;100.00;95669.06;1026416;28;20030;-71
2022/08/26 02:22:25;;;;;;;22.77;14.82;;;;;;;16.89;100.00;95660.03;1026677;28;20026;-71
2022/08/26 02:22:55;;;;;;;26.17;14.05;;;;;;;16.90;100.00;95664.22;1026853;28;20061;-70
2022/08/26 02:23:26;;;;;;;23.15;15.77;;;;;;;16.89;100.00;95660.03;1026567;28;20054;-71
2022/08/26 02:23:56;;;;;;;26.55;15.55;;;;;;;16.88;100.00;95653.94;1030434;28;20034;-71
2022/08/26 02:24:28;;;;;;;19.95;13.63;;;;;;;16.83;100.00;95662.00;1030506;28;20030;-70
2022/08/26 02:25:12;;;;;;;21.67;15.27;;;;;;;16.86;100.00;95660.63;1022925;28;20027;-71
2022/08/26 02:25:54;;;;;;;22.48;14.65;;;;;;;16.87;100.00;95657.69;1022567;29;20822;-71
2022/08/26 02:26:25;;;;;;;24.88;14.98;;;;;;;16.87;100.00;95657.69;1030576;28;20022;-71